Time;durP1;ratioP1;P1;durP2;ratioP2;P2;SDS_P1;SDS_P2;PMS_P1;PMS_P2;Temp;Humidity;BMP_temperature;BMP_pressure;BME280_temperature;BME280_humidity;BME280_pressure;Samples;Min_cycle;Max_cycle;Signal;HPM_P1;HPM_P2
2023/04/23 00:00:03;;;;;;;;;;;9.70;99.90;;;;;;5070951;28;19925;-72
2023/04/23 00:02:32;;;;;;;;;;;9.60;99.90;;;;;;5072158;28;20067;-73
2023/04/23 00:04:59;;;;;;;;;;;9.60;99.90;;;;;;5070622;28;19924;-72
2023/04/23 00:07:25;;;;;;;;;;;9.60;99.90;;;;;;5054361;28;19954;-72
2023/04/23 00:09:51;;;;;;;;;;;9.60;99.90;;;;;;5069887;28;19932;-72
2023/04/23 00:12:17;;;;;;;;;;;9.50;99.90;;;;;;5071870;28;19925;-72
2023/04/23 00:14:43;;;;;;;;;;;9.50;99.90;;;;;;5070125;28;19925;-73
2023/04/23 00:17:08;;;;;;;;;;;9.50;99.90;;;;;;5053646;28;19925;-72
2023/04/23 00:19:34;;;;;;;;;;;9.50;99.90;;;;;;5054005;28;19928;-73
2023/04/23 00:21:59;;;;;;;;;;;9.50;99.90;;;;;;5070261;28;19931;-73
2023/04/23 00:24:25;;;;;;;;;;;9.50;99.90;;;;;;5070585;28;20023;-73
2023/04/23 00:26:51;;;;;;;;;;;9.40;99.90;;;;;;5053325;28;20011;-72
2023/04/23 00:29:17;;;;;;;;;;;9.40;99.90;;;;;;5053729;28;19925;-73
2023/04/23 00:31:43;;;;;;;;;;;9.40;99.90;;;;;;5053065;28;20391;-73
2023/04/23 00:34:08;;;;;;;;;;;9.40;99.90;;;;;;5054053;28;19972;-73
2023/04/23 00:36:34;;;;;;;;;;;9.30;99.90;;;;;;5070854;28;19975;-73
2023/04/23 00:38:59;;;;;;;;;;;9.30;99.90;;;;;;5070024;28;20450;-72
2023/04/23 00:41:27;;;;;;;;;;;9.30;99.90;;;;;;5071680;28;20035;-72
2023/04/23 00:43:53;;;;;;;;;;;9.30;99.90;;;;;;5053764;28;19925;-72
2023/04/23 00:46:19;;;;;;;;;;;9.30;99.90;;;;;;5053686;28;19950;-73
2023/04/23 00:48:45;;;;;;;;;;;9.30;99.90;;;;;;5070199;28;20020;-73
2023/04/23 00:51:11;;;;;;;;;;;9.20;99.90;;;;;;5071658;28;19924;-74
2023/04/23 00:53:36;;;;;;;;;;;9.20;99.90;;;;;;5070188;28;19932;-74
2023/04/23 00:56:03;;;;;;;;;;;9.20;99.90;;;;;;5103781;28;19928;-73
2023/04/23 00:58:28;;;;;;;;;;;9.10;99.90;;;;;;5037249;28;20376;-73
2023/04/23 01:00:55;;;;;;;;;;;9.10;99.90;;;;;;5070165;28;19928;-73
2023/04/23 01:03:21;;;;;;;;;;;9.10;99.90;;;;;;5053927;28;19987;-74
2023/04/23 01:05:48;;;;;;;;;;;9.10;99.90;;;;;;5071926;28;19924;-72
2023/04/23 01:08:15;;;;;;;;;;;9.10;99.90;;;;;;5054357;28;19929;-73
2023/04/23 01:10:43;;;;;;;;;;;9.00;99.90;;;;;;5071835;28;19990;-73
2023/04/23 01:13:10;;;;;;;;;;;9.00;99.90;;;;;;5071527;28;19924;-73
2023/04/23 01:15:36;;;;;;;;;;;9.00;99.90;;;;;;5053866;28;19974;-73
2023/04/23 01:18:03;;;;;;;;;;;9.00;99.90;;;;;;5037576;28;19928;-72
2023/04/23 01:20:29;;;;;;;;;;;9.00;99.90;;;;;;5055034;28;19925;-72
2023/04/23 01:22:55;;;;;;;;;;;8.90;99.90;;;;;;5073315;28;19981;-72
2023/04/23 01:25:21;;;;;;;;;;;8.90;99.90;;;;;;5054584;28;19925;-72
2023/04/23 01:27:46;;;;;;;;;;;8.90;99.90;;;;;;5040882;28;19924;-73
2023/04/23 01:30:12;;;;;;;;;;;8.90;99.90;;;;;;5073605;28;19935;-73
2023/04/23 01:32:38;;;;;;;;;;;8.80;99.90;;;;;;5074432;28;19925;-73
2023/04/23 01:35:04;;;;;;;;;;;8.80;99.90;;;;;;5057067;28;19929;-73
2023/04/23 01:37:30;;;;;;;;;;;8.80;99.90;;;;;;5057099;28;19924;-72
2023/04/23 01:39:57;;;;;;;;;;;8.80;99.90;;;;;;5074612;28;19930;-72
2023/04/23 01:42:22;;;;;;;;;;;8.80;99.90;;;;;;5074680;28;19932;-73
2023/04/23 01:44:48;;;;;;;;;;;8.80;99.90;;;;;;5056994;28;19943;-73
2023/04/23 01:47:14;;;;;;;;;;;8.80;99.90;;;;;;5072844;28;19962;-73
2023/04/23 01:49:40;;;;;;;;;;;8.80;99.90;;;;;;5074438;28;20388;-73
2023/04/23 01:52:05;;;;;;;;;;;8.80;99.90;;;;;;5056127;28;20352;-73
2023/04/23 01:54:31;;;;;;;;;;;8.70;99.90;;;;;;5073309;28;19928;-73
2023/04/23 01:56:57;;;;;;;;;;;8.80;99.90;;;;;;5056342;28;19924;-73
2023/04/23 01:59:23;;;;;;;;;;;8.70;99.90;;;;;;5073501;28;19924;-74
2023/04/23 02:01:49;;;;;;;;;;;8.70;99.90;;;;;;5073247;28;19974;-74
2023/04/23 02:04:15;;;;;;;;;;;8.70;99.90;;;;;;5072899;28;19924;-73
2023/04/23 02:06:41;;;;;;;;;;;8.60;99.90;;;;;;5056377;28;20018;-73
2023/04/23 02:09:07;;;;;;;;;;;8.60;99.90;;;;;;5072274;28;19932;-72
2023/04/23 02:11:33;;;;;;;;;;;8.60;99.90;;;;;;5073106;28;19924;-73
2023/04/23 02:13:59;;;;;;;;;;;8.60;99.90;;;;;;5055997;28;20286;-72
2023/04/23 02:16:25;;;;;;;;;;;8.60;99.90;;;;;;5072647;28;19924;-73
2023/04/23 02:18:51;;;;;;;;;;;8.50;99.90;;;;;;5072627;28;20374;-74
2023/04/23 02:21:16;;;;;;;;;;;8.50;99.90;;;;;;5072344;28;19921;-73
2023/04/23 02:23:42;;;;;;;;;;;8.50;99.90;;;;;;5055963;28;19940;-73
2023/04/23 02:26:07;;;;;;;;;;;8.50;99.90;;;;;;5073544;28;19928;-73
2023/04/23 02:28:33;;;;;;;;;;;8.50;99.90;;;;;;5072751;28;19932;-73
2023/04/23 02:30:58;;;;;;;;;;;8.50;99.90;;;;;;5055293;28;20003;-73
2023/04/23 02:33:25;;;;;;;;;;;9.00;99.90;;;;;;5072590;28;19970;-73
2023/04/23 02:35:51;;;;;;;;;;;8.50;99.90;;;;;;5056141;28;19931;-73
2023/04/23 02:38:16;;;;;;;;;;;8.50;99.90;;;;;;5054237;28;19925;-73
2023/04/23 02:40:42;;;;;;;;;;;8.40;99.90;;;;;;5073660;28;19932;-73
2023/04/23 02:43:08;;;;;;;;;;;8.40;99.90;;;;;;5055499;28;19925;-73
2023/04/23 02:45:33;;;;;;;;;;;8.40;99.90;;;;;;5072421;28;19928;-73
2023/04/23 02:47:59;;;;;;;;;;;8.40;99.90;;;;;;5055674;28;20358;-74
2023/04/23 02:50:25;;;;;;;;;;;8.40;99.90;;;;;;5071805;28;20007;-73
2023/04/23 02:52:51;;;;;;;;;;;8.40;99.90;;;;;;5055747;28;19925;-74
2023/04/23 02:55:16;;;;;;;;;;;8.40;99.90;;;;;;5088814;28;19924;-74
2023/04/23 02:57:42;;;;;;;;;;;8.30;99.90;;;;;;5072086;28;19925;-72
2023/04/23 03:00:08;;;;;;;;;;;8.30;99.90;;;;;;5072769;28;19928;-73
2023/04/23 03:02:34;;;;;;;;;;;8.30;99.90;;;;;;5038880;28;19928;-73
2023/04/23 03:04:59;;;;;;;;;;;8.30;99.90;;;;;;5073044;28;19948;-73
2023/04/23 03:07:25;;;;;;;;;;;8.30;99.90;;;;;;5054886;28;19925;-72
2023/04/23 03:09:51;;;;;;;;;;;8.30;99.90;;;;;;5071508;28;19924;-73
2023/04/23 03:12:17;;;;;;;;;;;8.20;99.90;;;;;;5071365;28;19974;-73
2023/04/23 03:14:43;;;;;;;;;;;8.30;99.90;;;;;;5071956;28;19939;-72
2023/04/23 03:17:08;;;;;;;;;;;8.20;99.90;;;;;;5072484;28;20317;-74
2023/04/23 03:19:34;;;;;;;;;;;8.20;99.90;;;;;;5054995;28;20358;-73
2023/04/23 03:22:02;;;;;;;;;;;8.20;99.90;;;;;;5071503;28;19931;-74
2023/04/23 03:24:30;;;;;;;;;;;8.20;99.90;;;;;;5070988;28;19978;-73
2023/04/23 03:26:56;;;;;;;;;;;8.20;99.90;;;;;;5055249;28;19974;-73
2023/04/23 03:29:22;;;;;;;;;;;8.10;99.90;;;;;;5070934;28;19950;-73
2023/04/23 03:31:48;;;;;;;;;;;8.10;99.90;;;;;;5071166;28;20016;-73
2023/04/23 03:34:13;;;;;;;;;;;8.10;99.90;;;;;;5071290;28;19936;-73
2023/04/23 03:36:39;;;;;;;;;;;8.00;99.90;;;;;;5054853;28;19931;-73
2023/04/23 03:39:06;;;;;;;;;;;7.90;99.90;;;;;;5072537;28;19924;-73
2023/04/23 03:41:32;;;;;;;;;;;7.90;99.90;;;;;;5070597;28;19993;-74
2023/04/23 03:43:57;;;;;;;;;;;7.90;99.90;;;;;;5071287;28;20435;-73
2023/04/23 03:46:23;;;;;;;;;;;7.80;99.90;;;;;;5071797;28;19929;-73
2023/04/23 03:48:49;;;;;;;;;;;7.80;99.90;;;;;;5053902;28;19940;-73
2023/04/23 03:51:14;;;;;;;;;;;7.80;99.90;;;;;;5053616;28;20007;-73
2023/04/23 03:53:41;;;;;;;;;;;7.80;99.90;;;;;;5071545;28;20329;-73
2023/04/23 03:56:07;;;;;;;;;;;7.70;99.90;;;;;;5070868;28;19947;-72
2023/04/23 03:58:32;;;;;;;;;;;7.70;99.90;;;;;;5053952;28;19924;-73
2023/04/23 04:00:58;;;;;;;;;;;7.70;99.90;;;;;;5070692;28;19936;-73
2023/04/23 04:03:24;;;;;;;;;;;7.60;99.90;;;;;;5070532;28;19934;-72
2023/04/23 04:05:50;;;;;;;;;;;7.60;99.90;;;;;;5071943;28;19932;-74
2023/04/23 04:08:15;;;;;;;;;;;7.60;99.90;;;;;;5053745;28;19924;-73
2023/04/23 04:10:41;;;;;;;;;;;7.60;99.90;;;;;;5071899;28;20027;-73
2023/04/23 04:13:07;;;;;;;;;;;7.60;99.90;;;;;;5070731;28;19985;-74
2023/04/23 04:15:32;;;;;;;;;;;7.70;99.90;;;;;;5070518;28;19920;-72
2023/04/23 04:17:59;;;;;;;;;;;7.70;99.90;;;;;;5053745;28;20365;-73
2023/04/23 04:20:27;;;;;;;;;;;7.70;99.90;;;;;;5053765;28;19924;-73
2023/04/23 04:22:53;;;;;;;;;;;7.70;99.90;;;;;;5053895;28;19924;-74
2023/04/23 04:25:21;;;;;;;;;;;7.70;99.90;;;;;;5036716;28;19947;-73
2023/04/23 04:27:46;;;;;;;;;;;7.70;99.90;;;;;;5070587;28;19936;-73
2023/04/23 04:30:12;;;;;;;;;;;7.70;99.90;;;;;;5070199;28;19924;-72
2023/04/23 04:32:39;;;;;;;;;;;7.70;99.90;;;;;;5070299;28;19967;-72
2023/04/23 04:35:07;;;;;;;;;;;7.70;99.90;;;;;;5070277;28;20385;-73
2023/04/23 04:37:34;;;;;;;;;;;7.80;99.90;;;;;;5070035;28;20185;-73
2023/04/23 04:40:00;;;;;;;;;;;7.80;99.90;;;;;;5053780;28;20110;-74
2023/04/23 04:42:26;;;;;;;;;;;7.70;99.90;;;;;;5053517;28;20027;-73
2023/04/23 04:44:51;;;;;;;;;;;7.80;99.90;;;;;;5070408;28;20402;-73
2023/04/23 04:47:17;;;;;;;;;;;7.80;99.90;;;;;;5053327;28;19932;-72
2023/04/23 04:49:43;;;;;;;;;;;7.70;99.90;;;;;;5071446;28;19924;-73
2023/04/23 04:52:09;;;;;;;;;;;7.80;99.90;;;;;;5070411;28;19928;-73
2023/04/23 04:54:35;;;;;;;;;;;7.90;99.90;;;;;;5053700;28;19925;-73
2023/04/23 04:57:01;;;;;;;;;;;7.80;99.90;;;;;;5071735;28;20015;-73
2023/04/23 04:59:26;;;;;;;;;;;7.80;99.90;;;;;;5070132;28;20087;-73
2023/04/23 05:01:52;;;;;;;;;;;7.80;99.90;;;;;;5072999;28;20313;-72
2023/04/23 05:04:18;;;;;;;;;;;7.80;99.90;;;;;;5057444;28;19990;-73
2023/04/23 05:06:43;;;;;;;;;;;7.80;99.90;;;;;;5073946;28;20022;-73
2023/04/23 05:09:09;;;;;;;;;;;7.80;99.90;;;;;;5075067;28;20383;-73
2023/04/23 05:11:35;;;;;;;;;;;7.90;99.90;;;;;;5073953;28;19924;-74
2023/04/23 05:14:00;;;;;;;;;;;7.90;99.90;;;;;;5074889;28;19947;-73
2023/04/23 05:16:26;;;;;;;;;;;7.90;99.90;;;;;;5073332;28;19951;-73
2023/04/23 05:18:51;;;;;;;;;;;7.90;99.90;;;;;;5074202;28;19925;-73
2023/04/23 05:21:18;;;;;;;;;;;7.90;99.90;;;;;;5090945;28;20379;-73
2023/04/23 05:23:43;;;;;;;;;;;7.90;99.90;;;;;;5056655;28;19939;-72
2023/04/23 05:26:09;;;;;;;;;;;8.00;99.90;;;;;;5107855;28;20031;-73
2023/04/23 05:28:35;;;;;;;;;;;7.90;99.90;;;;;;5056514;28;19925;-73
2023/04/23 05:31:01;;;;;;;;;;;7.90;99.90;;;;;;5073223;28;19939;-73
2023/04/23 05:33:27;;;;;;;;;;;7.90;99.90;;;;;;5073282;28;19931;-72
2023/04/23 05:35:53;;;;;;;;;;;7.90;99.90;;;;;;5073902;28;19925;-73
2023/04/23 05:38:19;;;;;;;;;;;8.00;99.90;;;;;;5073729;28;19925;-73
2023/04/23 05:40:44;;;;;;;;;;;8.10;99.90;;;;;;5056692;28;19990;-73
2023/04/23 05:43:10;;;;;;;;;;;8.00;99.90;;;;;;5073438;28;19932;-74
2023/04/23 05:45:36;;;;;;;;;;;8.00;99.90;;;;;;5056656;28;19931;-73
2023/04/23 05:48:02;;;;;;;;;;;8.00;99.90;;;;;;5040321;28;19924;-73
2023/04/23 05:50:27;;;;;;;;;;;7.90;99.90;;;;;;5074263;28;19982;-73
2023/04/23 05:52:53;;;;;;;;;;;7.90;99.90;;;;;;5073374;28;19997;-73
2023/04/23 05:55:19;;;;;;;;;;;7.90;99.90;;;;;;5074383;28;20388;-73
2023/04/23 05:57:45;;;;;;;;;;;7.90;99.90;;;;;;5073118;28;19976;-72
2023/04/23 06:00:11;;;;;;;;;;;7.90;99.90;;;;;;5072941;28;20396;-73
2023/04/23 06:02:37;;;;;;;;;;;8.00;99.90;;;;;;5072734;28;20296;-74
2023/04/23 06:05:03;;;;;;;;;;;8.00;99.90;;;;;;5107224;28;19932;-72
2023/04/23 06:07:29;;;;;;;;;;;8.00;99.90;;;;;;5056166;28;20247;-72
2023/04/23 06:09:54;;;;;;;;;;;8.00;99.90;;;;;;5075341;28;19931;-75
2023/04/23 06:12:20;;;;;;;;;;;8.10;99.90;;;;;;5040812;28;19968;-72
2023/04/23 06:14:46;;;;;;;;;;;8.20;99.90;;;;;;5072709;28;19924;-73
2023/04/23 06:17:12;;;;;;;;;;;8.20;99.90;;;;;;5072759;28;19924;-70
2023/04/23 06:19:37;;;;;;;;;;;8.30;99.90;;;;;;5072700;28;20301;-71
2023/04/23 06:22:03;;;;;;;;;;;8.40;99.90;;;;;;5039918;28;19950;-73
2023/04/23 06:24:29;;;;;;;;;;;8.50;99.90;;;;;;5073028;28;19931;-74
2023/04/23 06:26:55;;;;;;;;;;;8.50;99.90;;;;;;5073188;28;19998;-73
2023/04/23 06:29:20;;;;;;;;;;;8.60;99.90;;;;;;5039657;28;19932;-74
2023/04/23 06:31:46;;;;;;;;;;;8.60;99.90;;;;;;5055449;28;19932;-72
2023/04/23 06:34:11;;;;;;;;;;;8.70;99.90;;;;;;5072593;28;19925;-72
2023/04/23 06:36:37;;;;;;;;;;;8.80;99.90;;;;;;5072287;28;20019;-73
2023/04/23 06:39:03;;;;;;;;;;;9.20;99.90;;;;;;5072348;28;19925;-72
2023/04/23 06:41:28;;;;;;;;;;;9.70;99.90;;;;;;5056041;28;19931;-72
2023/04/23 06:43:54;;;;;;;;;;;10.00;99.90;;;;;;5055621;28;20400;-72
2023/04/23 06:46:20;;;;;;;;;;;10.10;99.90;;;;;;5072643;28;19947;-73
2023/04/23 06:48:46;;;;;;;;;;;10.00;99.90;;;;;;5055244;28;19924;-73
2023/04/23 06:51:11;;;;;;;;;;;10.00;99.90;;;;;;5072503;28;20387;-74
2023/04/23 06:53:37;;;;;;;;;;;10.10;99.90;;;;;;5055294;28;19944;-73
2023/04/23 06:56:02;;;;;;;;;;;10.50;99.90;;;;;;5073564;28;20011;-74
2023/04/23 06:58:31;;;;;;;;;;;11.00;99.90;;;;;;5072335;28;19925;-74
2023/04/23 07:01:00;;;;;;;;;;;11.10;99.90;;;;;;5071670;28;19946;-74
2023/04/23 07:03:26;;;;;;;;;;;;;;;;;;5055677;28;20362;-74
2023/04/23 07:05:52;;;;;;;;;;;11.20;99.90;;;;;;5072016;28;19970;-73
2023/04/23 07:08:18;;;;;;;;;;;12.20;99.90;;;;;;5073199;28;20332;-73
2023/04/23 07:10:43;;;;;;;;;;;12.60;99.90;;;;;;5071186;28;19929;-70
2023/04/23 07:13:09;;;;;;;;;;;13.20;99.90;;;;;;5038791;28;19924;-72
2023/04/23 07:15:35;;;;;;;;;;;13.60;99.90;;;;;;5055327;28;19924;-71
2023/04/23 07:18:00;;;;;;;;;;;14.00;99.90;;;;;;5071189;28;19924;-71
2023/04/23 07:20:26;;;;;;;;;;;14.40;99.90;;;;;;5071665;28;19924;-72
2023/04/23 07:22:51;;;;;;;;;;;14.80;99.90;;;;;;5054837;28;19925;-72
2023/04/23 07:25:17;;;;;;;;;;;15.20;99.90;;;;;;5071348;28;19928;-70
2023/04/23 07:27:42;;;;;;;;;;;15.70;99.90;;;;;;5072458;28;19925;-70
2023/04/23 07:30:08;;;;;;;;;;;16.10;99.90;;;;;;5071186;28;20286;-71
2023/04/23 07:32:34;;;;;;;;;;;16.50;99.90;;;;;;5071745;28;19928;-70
2023/04/23 07:35:00;;;;;;;;;;;16.80;99.90;;;;;;5071096;28;19928;-70
2023/04/23 07:37:25;;;;;;;;;;;17.00;99.90;;;;;;5054712;28;19925;-70
2023/04/23 07:39:52;;;;;;;;;;;17.40;99.90;;;;;;5071840;28;20088;-71
2023/04/23 07:42:18;;;;;;;;;;;17.60;99.90;;;;;;5054981;28;19971;-71
2023/04/23 07:44:43;;;;;;;;;;;17.70;99.90;;;;;;5072450;28;20381;-71
2023/04/23 07:47:10;;;;;;;;;;;17.40;99.90;;;;;;5071643;28;19925;-70
2023/04/23 07:49:35;;;;;;;;;;;17.20;99.90;;;;;;5071170;28;19925;-71
2023/04/23 07:52:01;;;;;;;;;;;17.00;99.90;;;;;;5071108;28;20560;-69
2023/04/23 07:54:26;;;;;;;;;;;16.30;99.90;;;;;;5070854;28;20015;-70
2023/04/23 07:56:52;;;;;;;;;;;16.30;99.90;;;;;;5054341;28;19935;-69
2023/04/23 07:59:18;;;;;;;;;;;16.40;99.90;;;;;;5071051;28;20026;-70
2023/04/23 08:01:43;;;;;;;;;;;16.40;99.90;;;;;;5054402;28;19932;-72
2023/04/23 08:04:10;;;;;;;;;;;16.30;99.90;;;;;;5071147;28;19924;-72
2023/04/23 08:06:35;;;;;;;;;;;16.50;99.90;;;;;;5038010;28;19925;-70
2023/04/23 08:09:05;;;;;;;;;;;17.00;99.90;;;;;;5053885;28;20018;-70
2023/04/23 08:11:31;;;;;;;;;;;17.60;99.90;;;;;;5070837;28;19932;-69
2023/04/23 08:13:57;;;;;;;;;;;18.10;99.90;;;;;;5070663;28;19931;-70
2023/04/23 08:16:22;;;;;;;;;;;18.30;99.90;;;;;;5054231;28;19924;-71
2023/04/23 08:18:48;;;;;;;;;;;18.80;99.90;;;;;;5070860;28;19925;-70
2023/04/23 08:21:13;;;;;;;;;;;19.40;99.90;;;;;;5070653;28;20335;-70
2023/04/23 08:23:39;;;;;;;;;;;20.10;99.90;;;;;;5071091;28;19925;-70
2023/04/23 08:26:05;;;;;;;;;;;20.80;99.90;;;;;;5071459;28;19944;-70
2023/04/23 08:28:30;;;;;;;;;;;21.30;99.90;;;;;;5054250;28;19925;-71
2023/04/23 08:30:56;;;;;;;;;;;21.50;99.90;;;;;;5053505;28;19925;-70
2023/04/23 08:33:21;;;;;;;;;;;21.50;99.90;;;;;;5070365;28;19932;-71
2023/04/23 08:35:47;;;;;;;;;;;21.40;99.90;;;;;;5054671;28;19924;-72
2023/04/23 08:38:12;;;;;;;;;;;21.70;99.90;;;;;;5074470;28;19929;-71
2023/04/23 08:40:39;;;;;;;;;;;21.90;99.90;;;;;;5074952;28;19970;-71
2023/04/23 08:43:25;;;;;;;;;;;22.20;99.90;;;;;;5108523;28;19924;-72
2023/04/23 08:45:51;;;;;;;;;;;22.40;99.90;;;;;;5097270;28;19928;-71
2023/04/23 08:48:18;;;;;;;;;;;22.50;99.90;;;;;;5075719;28;19924;-69
2023/04/23 08:50:44;;;;;;;;;;;22.60;99.90;;;;;;5074859;28;19929;-69
2023/04/23 08:53:16;;;;;;;;;;;22.80;99.90;;;;;;5074311;28;19921;-70
2023/04/23 08:55:42;;;;;;;;;;;23.10;99.90;;;;;;5057966;28;19924;-69
2023/04/23 08:58:08;;;;;;;;;;;23.30;99.90;;;;;;5075301;28;19931;-70
2023/04/23 09:00:34;;;;;;;;;;;23.20;99.60;;;;;;5041306;28;19928;-69
2023/04/23 09:03:00;;;;;;;;;;;23.40;99.90;;;;;;5057526;28;19925;-68
2023/04/23 09:05:26;;;;;;;;;;;23.70;99.30;;;;;;5057824;28;19931;-69
2023/04/23 09:07:53;;;;;;;;;;;23.80;98.50;;;;;;5074184;28;19924;-71
2023/04/23 09:10:18;;;;;;;;;;;23.70;98.40;;;;;;5040589;28;19924;-69
2023/04/23 09:12:44;;;;;;;;;;;23.90;98.40;;;;;;5040815;28;19932;-69
2023/04/23 09:15:11;;;;;;;;;;;24.00;98.50;;;;;;5073282;28;19970;-70
2023/04/23 09:17:38;;;;;;;;;;;24.10;99.00;;;;;;5074356;28;19932;-66
2023/04/23 09:20:05;;;;;;;;;;;23.90;97.80;;;;;;5073073;28;19929;-69
2023/04/23 09:22:54;;;;;;;;;;;23.10;98.30;;;;;;5057261;28;19925;-70
2023/04/23 09:25:21;;;;;;;;;;;23.30;99.70;;;;;;5074262;28;19936;-68
2023/04/23 09:27:48;;;;;;;;;;;23.50;98.40;;;;;;5073302;28;19921;-68
2023/04/23 09:30:15;;;;;;;;;;;23.90;98.30;;;;;;5072810;28;19932;-68
2023/04/23 09:32:41;;;;;;;;;;;24.10;97.90;;;;;;5074054;28;19924;-68
2023/04/23 09:35:07;;;;;;;;;;;24.10;97.90;;;;;;5056069;28;19928;-68
2023/04/23 09:37:33;;;;;;;;;;;23.60;98.00;;;;;;5057195;28;19998;-70
2023/04/23 09:40:00;;;;;;;;;;;23.00;97.90;;;;;;5072846;28;19924;-69
2023/04/23 09:42:26;;;;;;;;;;;22.60;98.50;;;;;;5073375;28;20289;-69
2023/04/23 09:44:59;;;;;;;;;;;22.00;98.30;;;;;;5074818;28;20163;-68
2023/04/23 09:47:25;;;;;;;;;;;21.60;98.70;;;;;;5072878;28;19973;-68
2023/04/23 09:49:50;;;;;;;;;;;21.20;99.50;;;;;;5071170;28;19928;-68
2023/04/23 09:52:17;;;;;;;;;;;20.90;99.60;;;;;;5055249;28;20381;-72
2023/04/23 09:54:45;;;;;;;;;;;20.70;99.90;;;;;;5071115;28;19974;-69
2023/04/23 09:57:10;;;;;;;;;;;20.70;99.90;;;;;;5070094;28;19925;-69
2023/04/23 09:59:36;;;;;;;;;;;20.80;99.90;;;;;;5056553;28;19924;-71
2023/04/23 10:02:02;;;;;;;;;;;20.70;99.90;;;;;;5071816;28;20238;-68
2023/04/23 10:04:28;;;;;;;;;;;20.50;99.90;;;;;;5071697;28;20130;-69
2023/04/23 10:06:55;;;;;;;;;;;20.40;99.90;;;;;;5072388;28;19929;-67
2023/04/23 10:09:23;;;;;;;;;;;20.40;99.90;;;;;;5054168;28;19931;-68
2023/04/23 10:12:08;;;;;;;;;;;20.50;99.90;;;;;;5071363;28;19979;-69
2023/04/23 10:14:33;;;;;;;;;;;20.60;99.90;;;;;;5055478;28;20019;-67
2023/04/23 10:17:00;;;;;;;;;;;20.50;99.90;;;;;;5072350;28;19964;-67
2023/04/23 10:19:27;;;;;;;;;;;20.50;99.90;;;;;;5073875;28;19929;-66
2023/04/23 10:22:00;;;;;;;;;;;20.50;99.90;;;;;;5070944;28;20482;-68
2023/04/23 10:24:28;;;;;;;;;;;20.40;99.90;;;;;;5071661;28;20277;-68
2023/04/23 10:26:59;;;;;;;;;;;20.10;99.90;;;;;;5069509;28;19928;-69
2023/04/23 10:29:26;;;;;;;;;;;19.90;99.90;;;;;;5071764;28;20051;-68
2023/04/23 10:31:53;;;;;;;;;;;19.80;99.90;;;;;;5066433;28;19920;-69
2023/04/23 10:34:19;;;;;;;;;;;19.90;99.90;;;;;;5071117;28;20388;-68
2023/04/23 10:36:45;;;;;;;;;;;19.80;99.90;;;;;;5054601;28;19931;-69
2023/04/23 10:39:11;;;;;;;;;;;19.80;99.90;;;;;;5072148;28;19924;-66
2023/04/23 10:41:38;;;;;;;;;;;19.70;99.90;;;;;;5072450;28;19964;-72
2023/04/23 10:44:04;;;;;;;;;;;19.70;99.90;;;;;;5071922;28;20022;-66
2023/04/23 10:46:31;;;;;;;;;;;19.70;99.90;;;;;;5073029;28;20018;-65
2023/04/23 10:49:15;;;;;;;;;;;19.70;99.90;;;;;;5069958;28;19928;-67
2023/04/23 10:51:41;;;;;;;;;;;19.70;99.90;;;;;;5051852;28;20022;-70
2023/04/23 10:54:09;;;;;;;;;;;19.70;99.90;;;;;;5069459;28;20035;-72
2023/04/23 10:56:42;;;;;;;;;;;19.80;99.90;;;;;;5071311;28;19925;-68
2023/04/23 10:59:16;;;;;;;;;;;19.90;99.90;;;;;;5069712;28;19925;-72
2023/04/23 11:01:44;;;;;;;;;;;19.90;99.90;;;;;;5073499;28;19986;-70
2023/04/23 11:04:23;;;;;;;;;;;19.80;99.90;;;;;;5071142;28;19932;-68
2023/04/23 11:06:50;;;;;;;;;;;19.80;99.90;;;;;;5072508;28;20362;-68
2023/04/23 11:09:29;;;;;;;;;;;19.80;99.90;;;;;;5064647;28;19920;-69
2023/04/23 11:11:56;;;;;;;;;;;19.90;99.90;;;;;;5066642;28;19924;-71
2023/04/23 11:14:53;;;;;;;;;;;19.90;99.90;;;;;;5071284;28;20088;-68
2023/04/23 11:17:31;;;;;;;;;;;19.90;99.90;;;;;;5091277;28;19974;-68
2023/04/23 11:20:02;;;;;;;;;;;19.90;99.90;;;;;;5071139;28;19924;-67
2023/04/23 11:22:55;;;;;;;;;;;20.10;99.90;;;;;;5071929;28;19931;-68
2023/04/23 11:25:21;;;;;;;;;;;20.10;99.90;;;;;;5102192;28;20007;-68
2023/04/23 11:27:48;;;;;;;;;;;20.30;99.60;;;;;;5071749;28;20381;-70
2023/04/23 11:30:18;;;;;;;;;;;20.30;99.60;;;;;;5102793;28;19927;-69
2023/04/23 11:32:54;;;;;;;;;;;20.40;99.50;;;;;;5071865;28;19971;-68
2023/04/23 11:35:20;;;;;;;;;;;20.40;98.40;;;;;;5072601;28;20019;-69
2023/04/23 11:37:49;;;;;;;;;;;20.40;98.60;;;;;;5055180;28;19932;-71
2023/04/23 11:40:20;;;;;;;;;;;20.50;98.90;;;;;;5068264;28;20171;-70
2023/04/23 11:42:46;;;;;;;;;;;20.70;98.40;;;;;;5070320;28;19932;-70
2023/04/23 11:45:19;;;;;;;;;;;20.60;97.70;;;;;;5065383;28;19924;-65
2023/04/23 11:47:45;;;;;;;;;;;20.50;97.30;;;;;;5070392;28;20349;-66
2023/04/23 11:50:18;;;;;;;;;;;20.40;97.50;;;;;;5070165;28;19966;-67
2023/04/23 11:52:43;;;;;;;;;;;20.50;97.70;;;;;;5071234;28;19928;-67
2023/04/23 11:55:09;;;;;;;;;;;20.50;97.40;;;;;;5072931;28;19932;-66
2023/04/23 11:57:36;;;;;;;;;;;20.50;97.30;;;;;;5070636;28;19924;-70
2023/04/23 12:00:11;;;;;;;;;;;20.50;97.60;;;;;;5071032;28;19978;-65
2023/04/23 12:02:36;;;;;;;;;;;20.40;97.60;;;;;;5065372;28;19931;-65
2023/04/23 12:05:04;;;;;;;;;;;20.50;97.20;;;;;;5062854;28;19920;-64
2023/04/23 12:07:33;;;;;;;;;;;20.40;96.80;;;;;;5069232;28;19924;-66
2023/04/23 12:09:59;;;;;;;;;;;20.30;96.80;;;;;;5071966;28;20015;-68
2023/04/23 12:12:31;;;;;;;;;;;20.20;97.00;;;;;;5072151;28;19946;-66
2023/04/23 12:15:04;;;;;;;;;;;20.20;97.40;;;;;;5038234;28;19985;-68
2023/04/23 12:17:30;;;;;;;;;;;20.20;97.10;;;;;;5071739;28;20015;-66
2023/04/23 12:19:55;;;;;;;;;;;20.20;97.30;;;;;;5070674;28;19931;-67
2023/04/23 12:22:25;;;;;;;;;;;20.20;97.10;;;;;;5071928;28;19924;-68
2023/04/23 12:24:52;;;;;;;;;;;20.10;97.20;;;;;;5072324;28;20282;-66
2023/04/23 12:27:19;;;;;;;;;;;20.00;97.50;;;;;;5070983;28;19924;-67
2023/04/23 12:29:46;;;;;;;;;;;20.00;97.60;;;;;;5071975;28;19931;-66
2023/04/23 12:32:13;;;;;;;;;;;20.00;97.90;;;;;;5070844;28;19925;-65
2023/04/23 12:34:59;;;;;;;;;;;19.90;97.50;;;;;;5071836;28;19931;-65
2023/04/23 12:37:25;;;;;;;;;;;19.80;96.40;;;;;;5071375;28;20028;-66
2023/04/23 12:39:52;;;;;;;;;;;19.80;97.00;;;;;;5071811;28;19925;-66
2023/04/23 12:42:18;;;;;;;;;;;19.80;97.20;;;;;;5054134;28;19925;-66
2023/04/23 12:44:43;;;;;;;;;;;19.90;96.70;;;;;;5071005;28;20265;-66
2023/04/23 12:47:18;;;;;;;;;;;20.00;96.80;;;;;;5054559;28;19924;-66
2023/04/23 12:49:44;;;;;;;;;;;20.00;97.20;;;;;;5071868;28;20019;-66
2023/04/23 12:52:09;;;;;;;;;;;20.00;96.50;;;;;;5071750;28;19982;-67
2023/04/23 12:54:36;;;;;;;;;;;19.90;96.80;;;;;;5069356;28;20327;-65
2023/04/23 12:57:02;;;;;;;;;;;19.90;97.00;;;;;;5072035;28;19931;-65
2023/04/23 12:59:27;;;;;;;;;;;20.00;96.90;;;;;;5059478;28;20230;-66
2023/04/23 13:01:53;;;;;;;;;;;20.10;96.90;;;;;;5087691;28;19971;-67
2023/04/23 13:04:19;;;;;;;;;;;20.20;96.70;;;;;;5064775;28;19921;-67
2023/04/23 13:06:45;;;;;;;;;;;20.30;96.90;;;;;;5053017;28;20286;-66
2023/04/23 13:09:10;;;;;;;;;;;20.40;97.20;;;;;;5068760;28;19951;-67
2023/04/23 13:11:37;;;;;;;;;;;20.50;96.20;;;;;;5070025;28;19931;-66
2023/04/23 13:14:02;;;;;;;;;;;20.50;96.00;;;;;;5071850;28;20407;-67
2023/04/23 13:16:28;;;;;;;;;;;20.50;96.10;;;;;;5070178;28;19982;-67
2023/04/23 13:18:54;;;;;;;;;;;20.30;95.30;;;;;;5071829;28;19928;-66
2023/04/23 13:21:19;;;;;;;;;;;20.30;95.80;;;;;;5071573;28;20050;-68
2023/04/23 13:23:45;;;;;;;;;;;20.20;95.70;;;;;;5074233;28;19924;-66
2023/04/23 13:26:10;;;;;;;;;;;20.10;95.80;;;;;;5074123;28;20019;-66
2023/04/23 13:28:36;;;;;;;;;;;20.00;95.60;;;;;;5073560;28;19987;-67
2023/04/23 13:31:02;;;;;;;;;;;20.00;95.60;;;;;;5074920;28;19940;-66
2023/04/23 13:33:28;;;;;;;;;;;20.00;95.80;;;;;;5074878;28;19925;-66
2023/04/23 13:35:55;;;;;;;;;;;20.00;95.70;;;;;;5075135;28;20011;-67
2023/04/23 13:38:22;;;;;;;;;;;20.00;95.70;;;;;;5074973;28;19969;-66
2023/04/23 13:40:47;;;;;;;;;;;20.20;96.10;;;;;;5074437;28;19972;-69
2023/04/23 13:43:13;;;;;;;;;;;20.20;95.70;;;;;;5073912;28;20327;-66
2023/04/23 13:45:39;;;;;;;;;;;20.30;95.70;;;;;;5074398;28;19932;-68
2023/04/23 13:48:06;;;;;;;;;;;20.30;95.40;;;;;;5073380;28;20014;-66
2023/04/23 13:50:32;;;;;;;;;;;20.20;95.80;;;;;;5074485;28;20012;-66
2023/04/23 13:52:58;;;;;;;;;;;20.10;95.60;;;;;;5073710;28;20410;-67
2023/04/23 13:55:24;;;;;;;;;;;20.20;96.10;;;;;;5074703;28;19932;-65
2023/04/23 13:57:49;;;;;;;;;;;20.20;96.00;;;;;;5074210;28;19978;-67
2023/04/23 14:00:15;;;;;;;;;;;20.30;96.00;;;;;;5074608;28;20066;-67
2023/04/23 14:02:41;;;;;;;;;;;20.30;95.30;;;;;;5074102;28;19925;-67
2023/04/23 14:05:07;;;;;;;;;;;20.30;95.10;;;;;;5073165;28;20397;-65
2023/04/23 14:07:33;;;;;;;;;;;20.20;95.20;;;;;;5073075;28;19975;-66
2023/04/23 14:09:59;;;;;;;;;;;20.10;95.20;;;;;;5073104;28;19972;-65
2023/04/23 14:12:25;;;;;;;;;;;20.00;95.20;;;;;;5074315;28;20331;-66
2023/04/23 14:14:51;;;;;;;;;;;20.00;95.40;;;;;;5073939;28;19997;-67
2023/04/23 14:17:16;;;;;;;;;;;20.10;94.90;;;;;;5073128;28;19925;-65
2023/04/23 14:19:42;;;;;;;;;;;20.10;95.40;;;;;;5072726;28;20019;-66